Kezdőlap
METAR-TAF:

METAR-TAF

Repülőterek :

Riohacha, Kolumbia

földrajzi szélesség: 11-32N, földrajzi hosszúság: 072-56W, magasság: 4 m

Jelenlegi meteorológiai megfigyelések

A jelentés 10 órával és 11 perccel ezelõtt készült, 00:00 UTC
Különbözõ irányokból fújó szél 2 kt
Hőmérséklet 29°C
Páratartalom 89%
Légköri nyomás 1010 hPa
Látótávolság 10 km, vagy több
Szórványos felhőzet 1800 lábon

METAR: SKRH 250000Z VRB02KT 9999 SCT018 29/27 Q1010

Idő: 05:11 (10:11 UTC)


TAF: hiányzik

Meteorológiai megfigyelések és előrejelzések több, mint 4000 repülőtéren (METAR és TAF jelentéseket).

A térképen piros és sárga pontok jelzik az elérhető meteorológiai állomásokat.

Mozgassa az egeret a pont fölött, hogy megjelenjen az állomás neve.

Azután kattintson az időjárási megfigyelések és előrejelzések megtekintéséhez.

A térkép megváltoztatása: kattintson a fekete keresztel jelölt zöld gombra ráközelítéshez, a vonallal jelölt zöld gombra távolításhoz, vagy a zöld nyilakra a szomszédos térképek eléréséhez.


METAR-TAF: